Naples Municipal Airport
KAPF : now visible

Airfield :











YOU CAN JOIN US ON...

 
LOGIN :

Register | Disclaimer

   EN    FR    IT 

 









Legend :    VFR   Marginal VFR   IFR   Intensive IFR   Very Intensive IFR
Visi :
Ceiling :
>= 8 km
>= 3000ft
5 to 8 km
1000 to 3000 ft
1500m to 5 km
500 to 1000 ft
800 to 1500m
200 to 500 ft
< 800m
< 200 ft
Symbols :   Thunderstorms  Fog  Heavy snow  Heavy precipitations  Wind > 20 kt






- Airport Elevation : 8 ft


KAPF - Naples Municipal

CURRENT METAR :
  • 012158Z 34004KT 5SM -TSRA BR SCT019 OVC070 24/24 A3002 RMK AO2 LTG DSNT N AND NW P0000 T02440244 $

EXPIRED METARs :
  • 012121Z 07021G26KT 1/2SM +TSRA FG BKN011 OVC023 23/23 A3003 RMK AO2 PK WND 07029/2118 LTG DSNT N-SE P0084 T02330233 $
  • 012107Z 10019KT 1SM +TSRA BR FEW012 BKN020 OVC047 25/24 A3003 RMK AO2 LTG DSNT N-E P0039 T02500239 $
  • 012100Z 11013G17KT 2SM +TSRA BR FEW012 BKN022 OVC047 26/25 A3003 RMK AO2 LTG DSNT N AND NE P0018 T02610250 $
  • 012038Z 26007KT 10SM TS BKN047 31/24 A3000 RMK AO2 LTG DSNT N-E TSB32 T03110244 $
  • 012010Z 26009KT 10SM VCTS FEW050 32/24 A3001 RMK AO2 LTG DSNT N T03170244 $
  • 010553Z AUTO 08005KT 10SM CLR 25/22 A3008 RMK AO2 SLP184 T02500222 10267 20250 58010
  • 011953Z 27008KT 10SM FEW055 SCT070 32/27 A3002 RMK AO2 RAE1859 SLP163 P0000 T03170267 $

TAF KAPF
Valid from the 01 at 06:00 until the 02 at 06:00 UTC


010532Z 0106/0206 07005KT P6SM BKN250
FM011400 10008KT P6SM SCT035 SCT250
FM011700 15008KT P6SM VCTS SCT025CB BKN050
TEMPO 0121/0201 VRB15G25KT 3SM TSRA BKN030CB
FM020300 08004KT P6SM SCT040 BKN100 OVC250
KZMA FIR / North America



MET'MAP, your aeronautical weather chart ! - Copyright ORBIFLY December 2007 - Disclaimer

ORBIFLY MET'MAP TEAM :

Programming & Development : Alexandra Zaïnal
Original concept : Baudouin d'Aumeries
Technical & hardware support : Manuel Goepfert
Assistance : Marc-Olivier Méhu




SOURCES & CREDITS :

   NOAA       Earth
Advisory